Time;durP1;ratioP1;P1;durP2;ratioP2;P2;SDS_P1;SDS_P2;PMS_P1;PMS_P2;Temp;Humidity;BMP_temperature;BMP_pressure;BME280_temperature;BME280_humidity;BME280_pressure;Samples;Min_cycle;Max_cycle;Signal;HPM_P1;HPM_P2
2023/10/16 00:01:10;;;;;;;1332.93;461.63;;;7.40;99.90;;;;;;5132788;27;20047;-85
2023/10/16 00:03:38;;;;;;;1323.57;454.07;;;7.40;99.90;;;;;;5114314;27;20062;-85
2023/10/16 00:06:05;;;;;;;1384.87;508.00;;;7.80;99.90;;;;;;5133908;27;20511;-85
2023/10/16 00:08:33;;;;;;;1389.90;510.47;;;7.40;99.90;;;;;;5173470;27;20050;-85
2023/10/16 00:11:03;;;;;;;1392.17;510.03;;;8.20;99.90;;;;;;5154313;27;20046;-84
2023/10/16 00:13:30;;;;;;;1329.70;458.90;;;8.30;99.90;;;;;;5154975;27;20429;-85
2023/10/16 00:16:02;;;;;;;1394.23;508.87;;;7.90;99.90;;;;;;5136241;27;20038;-85
2023/10/16 00:18:36;;;;;;;1334.00;458.53;;;7.50;99.90;;;;;;5154722;27;20042;-85
2023/10/16 00:21:06;;;;;;;1339.13;458.50;;;7.60;99.90;;;;;;5142412;27;20505;-85
2023/10/16 00:23:37;;;;;;;1324.97;455.50;;;7.60;99.90;;;;;;5137674;27;20042;-84
2023/10/16 00:26:06;;;;;;;1329.57;464.23;;;7.80;99.90;;;;;;5155114;27;20111;-85
2023/10/16 00:28:34;;;;;;;1329.33;461.40;;;8.30;99.90;;;;;;5154783;27;20436;-85
2023/10/16 00:31:00;;;;;;;1331.13;462.10;;;7.50;99.90;;;;;;5118835;27;20050;-84
2023/10/16 00:33:26;;;;;;;1326.67;461.77;;;8.10;99.90;;;;;;5134360;27;20039;-84
2023/10/16 00:35:52;;;;;;;1332.03;462.13;;;7.50;99.90;;;;;;5136113;27;20396;-84
2023/10/16 00:38:19;;;;;;;1328.53;469.30;;;8.30;99.90;;;;;;5118778;27;20087;-85
2023/10/16 00:43:33;;;;;;;1332.05;457.60;;;7.90;99.90;;;;;;5154302;27;20125;-84
2023/10/16 00:46:08;;;;;;;1328.47;457.93;;;7.40;99.90;;;;;;5154136;27;20043;-84
2023/10/16 00:48:36;;;;;;;1391.10;510.88;;;7.40;99.90;;;;;;5147494;27;20060;-85
2023/10/16 00:51:09;;;;;;;1389.33;509.00;;;7.80;99.90;;;;;;5175175;27;20045;-85
2023/10/16 00:53:41;;;;;;;1388.70;509.20;;;8.10;99.90;;;;;;5153678;27;20125;-85
2023/10/16 00:56:09;;;;;;;1388.33;508.67;;;7.60;99.90;;;;;;5135730;27;20363;-85
2023/10/16 00:58:35;;;;;;;1389.03;508.73;;;7.70;99.90;;;;;;5154297;27;20555;-85
2023/10/16 01:01:04;;;;;;;1391.43;507.77;;;8.00;99.90;;;;;;5159161;27;20117;-85
2023/10/16 01:03:33;;;;;;;1390.77;504.93;;;7.90;99.90;;;;;;5175298;27;20113;-85
2023/10/16 01:05:59;;;;;;;1391.50;509.30;;;8.20;99.90;;;;;;5156360;27;20387;-85
2023/10/16 01:08:25;;;;;;;1391.97;507.63;;;7.50;99.90;;;;;;5118277;27;20046;-85
2023/10/16 01:10:56;;;;;;;1393.50;506.33;;;7.50;99.90;;;;;;5118564;27;20516;-85
2023/10/16 01:13:22;;;;;;;1332.73;463.70;;;8.10;99.90;;;;;;5154485;27;20043;-85
2023/10/16 01:15:50;;;;;;;1395.70;509.17;;;7.40;99.90;;;;;;5135796;27;20065;-85
2023/10/16 01:18:17;;;;;;;1336.67;461.93;;;7.60;99.90;;;;;;5157725;27;20038;-85
2023/10/16 01:20:48;;;;;;;1399.60;509.87;;;7.30;99.90;;;;;;5139652;27;20047;-85
2023/10/16 01:23:18;;;;;;;1396.73;511.17;;;8.30;99.90;;;;;;5158476;27;20067;-85
2023/10/16 01:25:46;;;;;;;1327.50;454.77;;;7.50;99.90;;;;;;5155677;27;20046;-85
2023/10/16 01:28:15;;;;;;;1395.70;513.47;;;8.20;99.90;;;;;;5139378;27;20098;-85
2023/10/16 01:30:41;;;;;;;1399.53;508.17;;;8.30;99.90;;;;;;5177637;27;20127;-85
2023/10/16 01:33:07;;;;;;;1335.40;460.17;;;7.50;99.90;;;;;;5178955;27;20039;-85
2023/10/16 01:35:36;;;;;;;1341.13;461.07;;;8.30;99.90;;;;;;5178711;27;20098;-85
2023/10/16 01:38:18;;;;;;;1401.67;509.70;;;7.90;99.90;;;;;;5160342;27;20100;-85
2023/10/16 01:43:37;;;;;;;1396.93;507.63;;;7.50;99.90;;;;;;5057040;28;20071;-85
2023/10/16 01:46:12;;;;;;;1338.20;465.10;;;7.50;99.90;;;;;;5057130;28;20064;-85
2023/10/16 01:48:46;;;;;;;1346.72;467.52;;;7.50;99.90;;;;;;5073378;28;20059;-85
2023/10/16 01:51:18;;;;;;;1334.27;463.43;;;8.20;99.90;;;;;;5056896;28;20496;-85
2023/10/16 01:53:47;;;;;;;1396.90;508.23;;;8.00;99.90;;;;;;5056653;28;20048;-85
2023/10/16 01:56:13;;;;;;;1330.47;453.30;;;8.30;99.90;;;;;;5056536;28;20032;-85
2023/10/16 01:58:46;;;;;;;1396.67;509.13;;;8.30;99.90;;;;;;5057456;28;20041;-85
2023/10/16 02:01:14;;;;;;;1328.27;457.47;;;7.40;99.90;;;;;;5073369;28;20483;-84
2023/10/16 02:03:44;;;;;;;1330.63;457.43;;;8.10;99.90;;;;;;5056159;28;20052;-85
2023/10/16 02:06:14;;;;;;;1330.30;459.07;;;8.10;99.90;;;;;;5056210;28;20075;-85
2023/10/16 02:08:41;;;;;;;1394.97;510.47;;;7.30;99.90;;;;;;5056060;28;20489;-85
2023/10/16 02:11:07;;;;;;;1389.80;508.33;;;7.30;99.90;;;;;;5056470;28;20037;-84
2023/10/16 02:13:36;;;;;;;1334.87;465.17;;;7.30;99.90;;;;;;5056505;28;20048;-84
2023/10/16 02:16:06;;;;;;;1392.23;513.50;;;7.30;99.90;;;;;;5073363;28;20410;-84
2023/10/16 02:18:40;;;;;;;1393.33;510.03;;;7.90;99.90;;;;;;5072960;28;20504;-85
2023/10/16 02:21:09;;;;;;;1327.50;458.23;;;8.00;99.90;;;;;;5106970;27;20066;-85
2023/10/16 02:23:36;;;;;;;1388.53;508.87;;;7.90;99.90;;;;;;5138766;27;20235;-84
2023/10/16 02:26:05;;;;;;;1385.53;506.73;;;8.20;99.90;;;;;;5157150;27;20046;-85
2023/10/16 02:28:32;;;;;;;1335.80;469.13;;;8.00;99.90;;;;;;5156704;27;20043;-85
2023/10/16 02:31:10;;;;;;;1389.10;510.50;;;7.70;99.90;;;;;;5156137;27;20039;-85
2023/10/16 02:33:37;;;;;;;1325.27;460.00;;;7.30;99.90;;;;;;5121056;27;20133;-85
2023/10/16 02:36:03;;;;;;;1391.63;510.53;;;8.10;99.90;;;;;;5121160;27;20399;-85
2023/10/16 02:38:29;;;;;;;1325.47;458.90;;;7.20;99.90;;;;;;5156375;27;20046;-85
2023/10/16 02:41:07;;;;;;;1381.73;508.73;;;7.20;99.90;;;;;;5160956;27;20034;-85
2023/10/16 02:43:37;;;;;;;1324.73;466.20;;;7.50;99.90;;;;;;5121046;27;20816;-84
2023/10/16 02:46:08;;;;;;;1382.67;507.30;;;7.70;99.90;;;;;;5156779;27;20046;-84
2023/10/16 02:48:35;;;;;;;1317.43;455.43;;;7.10;99.90;;;;;;5138215;27;20385;-85
2023/10/16 02:51:02;;;;;;;1319.17;458.47;;;7.10;99.90;;;;;;5155789;27;20499;-84
2023/10/16 02:53:29;;;;;;;1315.60;457.70;;;8.10;99.90;;;;;;5133989;27;20039;-84
2023/10/16 02:56:08;;;;;;;1315.97;456.50;;;7.30;99.90;;;;;;5155021;27;20076;-85
2023/10/16 02:58:43;;;;;;;1315.10;455.53;;;7.50;99.90;;;;;;5138134;27;20386;-85
2023/10/16 03:01:19;;;;;;;1322.32;462.48;;;8.00;99.90;;;;;;5156148;27;20061;-84
2023/10/16 03:03:46;;;;;;;1306.57;452.77;;;8.00;99.90;;;;;;5155375;27;20039;-85
2023/10/16 03:06:13;;;;;;;1379.83;511.87;;;7.30;99.90;;;;;;5137292;27;20050;-86
2023/10/16 03:08:39;;;;;;;1315.40;457.73;;;7.40;99.90;;;;;;5156362;27;20051;-86
2023/10/16 03:11:13;;;;;;;1375.37;505.93;;;7.40;99.90;;;;;;5171503;27;20142;-84
2023/10/16 03:13:40;;;;;;;1383.83;510.60;;;8.00;99.90;;;;;;5141975;27;20043;-85
2023/10/16 03:16:16;;;;;;;1381.90;508.53;;;6.70;99.90;;;;;;5137513;27;20066;-85
2023/10/16 03:18:44;;;;;;;1375.73;509.03;;;7.40;99.90;;;;;;5137622;27;20091;-85
2023/10/16 03:23:42;;;;;;;1379.13;507.80;;;7.90;99.90;;;;;;5158677;27;20034;-84
2023/10/16 03:26:09;;;;;;;1320.53;466.40;;;7.60;99.90;;;;;;5134057;27;20043;-85
2023/10/16 03:28:57;;;;;;;1316.87;453.50;;;8.00;99.90;;;;;;5055068;28;20048;-85
2023/10/16 03:31:23;;;;;;;1320.10;458.00;;;7.50;99.90;;;;;;5055935;28;20123;-85
2023/10/16 03:33:50;;;;;;;1322.43;458.83;;;7.80;99.90;;;;;;5074415;28;20582;-85
2023/10/16 03:36:17;;;;;;;1323.00;456.37;;;8.00;99.90;;;;;;5091657;28;20052;-84
2023/10/16 03:38:43;;;;;;;1377.03;509.00;;;7.70;99.90;;;;;;5076865;28;20043;-84
2023/10/16 03:41:19;;;;;;;1322.27;461.63;;;8.10;99.90;;;;;;5094947;28;20079;-84
2023/10/16 03:43:56;;;;;;;1374.33;508.90;;;7.50;99.90;;;;;;5094996;28;20138;-84
2023/10/16 03:46:26;;;;;;;1323.00;463.43;;;8.20;99.90;;;;;;5095713;28;20138;-85
2023/10/16 03:48:52;;;;;;;1317.80;459.03;;;8.10;99.90;;;;;;5105031;28;20036;-85
2023/10/16 03:51:18;;;;;;;1374.77;507.17;;;8.40;99.90;;;;;;5058029;28;20127;-85
2023/10/16 03:53:44;;;;;;;1323.43;460.97;;;7.80;99.90;;;;;;5074687;28;20047;-84
2023/10/16 03:56:17;;;;;;;1382.90;512.63;;;8.00;99.90;;;;;;5091872;28;20055;-85
2023/10/16 03:58:44;;;;;;;1320.57;464.00;;;8.20;99.90;;;;;;5074665;28;20043;-84
2023/10/16 04:01:10;;;;;;;1314.93;459.47;;;8.20;99.90;;;;;;5074262;28;20059;-85
2023/10/16 04:03:56;;;;;;;1315.90;461.93;;;8.00;99.90;;;;;;5074782;28;20126;-85
2023/10/16 04:06:23;;;;;;;1313.57;455.20;;;8.30;99.90;;;;;;5085872;27;20051;-84
2023/10/16 04:08:51;;;;;;;1320.90;465.50;;;8.30;99.90;;;;;;5143550;27;20100;-84
2023/10/16 04:11:18;;;;;;;1376.43;509.90;;;8.00;99.90;;;;;;5154987;27;20045;-86
2023/10/16 04:13:52;;;;;;;1377.00;509.47;;;8.40;99.90;;;;;;5119482;27;20046;-85
2023/10/16 04:21:43;;;;;;;1388.03;509.70;;;8.10;99.90;;;;;;5174112;27;20050;-84
2023/10/16 04:26:57;;;;;;;1386.60;509.83;;;7.60;99.90;;;;;;5155383;27;20084;-84
2023/10/16 04:29:28;;;;;;;1321.70;458.57;;;7.60;99.90;;;;;;5136947;27;20038;-84
2023/10/16 04:31:58;;;;;;;1329.67;461.43;;;7.80;99.90;;;;;;5136712;27;20546;-84
2023/10/16 04:48:06;;;;;;;1336.60;462.43;;;7.70;99.90;;;;;;5155075;27;20443;-84
2023/10/16 06:14:34;;;;;;;1340.47;462.30;;;8.00;99.90;;;;;;5122306;27;20039;-84
2023/10/16 06:17:00;;;;;;;1413.87;514.23;;;8.00;99.90;;;;;;5136502;27;20058;-84
2023/10/16 06:19:26;;;;;;;1343.97;463.37;;;8.90;99.90;;;;;;5130581;27;20046;-84
2023/10/16 06:21:58;;;;;;;1339.93;467.40;;;8.00;99.90;;;;;;5144628;27;20075;-82
2023/10/16 06:24:38;;;;;;;1348.43;467.40;;;8.30;99.90;;;;;;5116986;28;20056;-84
2023/10/16 06:27:21;;;;;;;1412.43;517.57;;;7.90;99.90;;;;;;5098153;28;20050;-84
2023/10/16 06:29:50;;;;;;;1418.37;512.93;;;8.40;99.90;;;;;;5102178;28;20083;-84
2023/10/16 06:32:21;;;;;;;1348.17;469.37;;;8.60;99.90;;;;;;5114491;28;20040;-84
2023/10/16 06:34:57;;;;;;;1344.80;460.90;;;8.60;99.90;;;;;;5075996;28;20047;-84
2023/10/16 06:37:28;;;;;;;1414.68;515.42;;;8.40;99.90;;;;;;5089400;28;20056;-83
2023/10/16 06:39:58;;;;;;;1417.83;516.17;;;8.50;99.90;;;;;;5123088;27;20115;-86
2023/10/16 06:42:24;;;;;;;1346.47;463.93;;;8.00;99.90;;;;;;5120020;27;20164;-83
2023/10/16 06:44:54;;;;;;;1350.73;466.87;;;8.50;99.90;;;;;;5115412;28;20051;-84
2023/10/16 06:47:34;;;;;;;1348.33;464.90;;;8.60;99.90;;;;;;5114513;28;20036;-83
2023/10/16 06:52:55;;;;;;;1410.83;514.67;;;8.00;99.90;;;;;;5115668;27;20056;-84
2023/10/16 06:55:22;;;;;;;1420.33;516.77;;;8.00;99.90;;;;;;5094876;28;20040;-84
2023/10/16 06:57:48;;;;;;;1348.80;465.10;;;8.00;99.90;;;;;;5076697;28;20131;-83
2023/10/16 07:00:27;;;;;;;1414.97;514.87;;;8.60;99.90;;;;;;5097353;27;20393;-83
2023/10/16 07:02:54;;;;;;;1342.80;461.43;;;8.10;99.90;;;;;;5128527;27;20112;-83
2023/10/16 07:05:24;;;;;;;1413.77;513.37;;;8.40;99.90;;;;;;5114514;27;20071;-83
2023/10/16 07:07:52;;;;;;;1347.03;468.40;;;8.20;99.90;;;;;;5133959;27;20043;-84
2023/10/16 07:10:18;;;;;;;1415.80;516.90;;;8.20;99.90;;;;;;5135222;27;20047;-84
2023/10/16 07:12:58;;;;;;;1415.23;515.03;;;8.20;99.90;;;;;;5151164;27;20038;-83
2023/10/16 07:15:28;;;;;;;1415.40;518.53;;;8.30;99.90;;;;;;5133479;27;20185;-84
2023/10/16 07:17:55;;;;;;;1414.47;514.27;;;8.60;99.90;;;;;;5135338;27;20066;-83
2023/10/16 07:20:27;;;;;;;1348.33;476.13;;;8.30;99.90;;;;;;5134864;27;20119;-83
2023/10/16 07:22:59;;;;;;;1345.63;472.10;;;7.90;99.90;;;;;;5147475;27;20066;-88
2023/10/16 07:28:13;;;;;;;1345.97;471.83;;;8.30;99.90;;;;;;5134694;27;20107;-83
2023/10/16 07:30:42;;;;;;;1347.60;469.53;;;8.40;99.90;;;;;;5134267;27;20035;-84
2023/10/16 07:33:15;;;;;;;1350.33;475.70;;;8.90;99.90;;;;;;5135906;27;20047;-82
2023/10/16 07:35:44;;;;;;;1421.70;520.47;;;8.50;99.90;;;;;;5133078;27;20035;-81
2023/10/16 07:38:20;;;;;;;1349.37;470.10;;;8.60;99.90;;;;;;5133455;27;20545;-85
2023/10/16 07:40:55;;;;;;;1421.03;517.37;;;8.60;99.90;;;;;;5133640;27;20156;-83
2023/10/16 07:43:28;;;;;;;1355.10;480.03;;;8.90;99.90;;;;;;5137844;27;20043;-82
2023/10/16 07:46:17;;;;;;;1351.87;473.83;;;8.80;99.90;;;;;;5140123;27;20034;-81
2023/10/16 07:48:50;;;;;;;1428.57;521.27;;;8.90;99.90;;;;;;5138212;27;20117;-82
2023/10/16 07:51:19;;;;;;;1425.37;518.87;;;9.30;99.90;;;;;;5151914;27;20091;-83
2023/10/16 07:53:48;;;;;;;1358.40;481.07;;;9.30;99.90;;;;;;5155267;27;20046;-82
2023/10/16 07:58:54;;;;;;;1438.38;524.15;;;9.30;99.90;;;;;;5137329;27;20391;-82
2023/10/16 08:01:41;;;;;;;1436.93;522.88;;;9.50;99.90;;;;;;5155483;27;20095;-83
2023/10/16 08:07:02;;;;;;;1443.87;523.10;;;10.00;99.90;;;;;;5136268;27;20375;-88
2023/10/16 08:11:58;;;;;;;1374.37;493.43;;;10.10;99.90;;;;;;5176012;27;20038;-82
2023/10/16 08:14:24;;;;;;;1370.13;484.90;;;9.70;99.90;;;;;;5175878;27;20042;-83
2023/10/16 08:17:32;;;;;;;1450.17;525.90;;;9.80;99.90;;;;;;5175888;27;20049;-83
2023/10/16 08:19:40;;;;;;;1449.30;522.87;;;10.10;99.90;;;;;;5166778;27;20046;-82
2023/10/16 08:22:07;;;;;;;1451.97;525.30;;;10.00;99.90;;;;;;5150785;27;20129;-83
2023/10/16 08:24:34;;;;;;;1456.77;527.80;;;10.70;99.90;;;;;;5156792;27;20111;-83
2023/10/16 08:27:19;;;;;;;1381.83;493.63;;;10.20;99.90;;;;;;5154810;27;20081;-83
2023/10/16 08:29:53;;;;;;;1387.93;501.45;;;11.10;99.90;;;;;;5136249;27;20051;-83
2023/10/16 08:35:09;;;;;;;1472.53;531.83;;;10.60;99.90;;;;;;5154561;27;20099;-83
2023/10/16 08:37:40;;;;;;;1463.13;527.83;;;10.50;99.90;;;;;;5136237;27;20582;-83
2023/10/16 08:40:19;;;;;;;1387.83;501.17;;;10.60;99.90;;;;;;5132436;27;20111;-83
2023/10/16 08:43:00;;;;;;;1389.70;501.93;;;10.70;99.90;;;;;;5138700;27;20061;-83
2023/10/16 08:45:32;;;;;;;1468.90;531.53;;;10.90;99.90;;;;;;5154341;27;20489;-82
2023/10/16 08:47:59;;;;;;;1394.87;513.80;;;10.90;99.90;;;;;;5142435;27;20042;-83
2023/10/16 08:50:40;;;;;;;1473.33;530.73;;;11.40;99.90;;;;;;5162001;27;20051;-83
2023/10/16 08:53:31;;;;;;;1391.93;517.83;;;11.20;99.90;;;;;;5135858;27;20080;-83
2023/10/16 08:56:03;;;;;;;1470.70;532.23;;;11.30;99.90;;;;;;5153830;27;20043;-83
2023/10/16 08:58:38;;;;;;;1469.43;539.45;;;11.20;99.90;;;;;;5133671;28;20456;-83
2023/10/16 09:01:07;;;;;;;1472.87;535.23;;;11.20;99.90;;;;;;5115331;28;20076;-82
2023/10/16 09:03:44;;;;;;;1474.53;537.30;;;11.20;99.90;;;;;;5146764;27;20046;-83
2023/10/16 09:06:13;;;;;;;1472.87;538.13;;;11.20;99.90;;;;;;5135507;27;20054;-83
2023/10/16 09:08:43;;;;;;;1396.90;518.20;;;11.30;99.90;;;;;;5154361;27;20039;-83
2023/10/16 09:11:10;;;;;;;1477.57;539.50;;;11.20;99.90;;;;;;5162694;27;20047;-82
2023/10/16 09:13:35;;;;;;;1393.27;517.97;;;11.30;99.90;;;;;;5154164;27;20080;-83
2023/10/16 09:16:03;;;;;;;1478.30;542.93;;;11.20;99.90;;;;;;5153913;27;20050;-82
2023/10/16 09:18:31;;;;;;;1394.77;517.40;;;11.30;99.90;;;;;;5151800;27;20030;-83
2023/10/16 09:21:00;;;;;;;1388.67;525.87;;;11.40;99.90;;;;;;5164276;27;20049;-83
2023/10/16 09:23:36;;;;;;;1389.20;530.13;;;11.50;99.90;;;;;;5135149;27;20372;-84
2023/10/16 09:26:02;;;;;;;1473.72;541.13;;;11.70;99.90;;;;;;5154129;27;20117;-83
2023/10/16 09:28:32;;;;;;;1390.07;526.10;;;11.80;99.90;;;;;;5154023;27;20118;-83
2023/10/16 09:31:01;;;;;;;1399.27;526.37;;;11.90;99.90;;;;;;5164686;27;20049;-80
2023/10/16 09:33:27;;;;;;;1404.47;546.80;;;12.00;99.90;;;;;;5175007;27;20047;-83
2023/10/16 09:36:00;;;;;;;1407.17;548.93;;;11.90;99.90;;;;;;5156292;27;20113;-82
2023/10/16 09:38:32;;;;;;;1404.90;543.17;;;11.90;99.90;;;;;;5178440;27;20494;-82
2023/10/16 09:43:56;;;;;;;1492.70;545.97;;;12.00;99.90;;;;;;5158481;27;20073;-82
2023/10/16 09:47:25;;;;;;;1408.85;536.92;;;11.80;99.90;;;;;;5158919;27;20053;-82
2023/10/16 09:49:13;;;;;;;1488.47;548.50;;;12.40;99.90;;;;;;5148531;27;20042;-82
2023/10/16 09:51:45;;;;;;;1493.57;550.97;;;12.00;99.90;;;;;;5157190;27;20034;-82
2023/10/16 09:54:13;;;;;;;1410.90;548.77;;;11.80;99.90;;;;;;5139558;27;20403;-82
2023/10/16 09:56:44;;;;;;;1492.27;551.77;;;12.00;99.90;;;;;;5171478;27;20048;-83
2023/10/16 09:59:33;;;;;;;1401.87;551.10;;;12.30;99.90;;;;;;5159778;27;20039;-83
2023/10/16 10:02:10;;;;;;;1489.40;546.77;;;12.00;99.90;;;;;;5162783;27;20106;-84
2023/10/16 10:04:43;;;;;;;1491.87;546.87;;;12.10;99.90;;;;;;5157528;27;20570;-83
2023/10/16 10:07:19;;;;;;;1405.87;552.37;;;12.20;99.90;;;;;;5138868;27;20107;-84
2023/10/16 10:09:47;;;;;;;1493.57;548.63;;;12.50;99.90;;;;;;5138789;27;20498;-83
2023/10/16 10:12:42;;;;;;;1492.07;551.27;;;12.20;99.90;;;;;;5158566;27;20042;-83
2023/10/16 10:15:35;;;;;;;1495.03;546.40;;;12.20;99.90;;;;;;5140682;27;20122;-83
2023/10/16 10:18:31;;;;;;;1493.60;552.90;;;12.30;99.90;;;;;;5134722;27;20035;-85
2023/10/16 10:20:48;;;;;;;1409.37;563.03;;;12.50;99.90;;;;;;5155429;27;20070;-83
2023/10/16 10:23:15;;;;;;;1417.30;550.33;;;12.80;99.90;;;;;;5137687;27;20497;-84
2023/10/16 10:25:42;;;;;;;1496.87;552.50;;;12.60;99.90;;;;;;5138544;27;20042;-86
2023/10/16 10:28:28;;;;;;;1408.23;560.03;;;12.60;99.90;;;;;;5138050;27;20053;-87
2023/10/16 10:31:04;;;;;;;1496.70;552.33;;;12.70;99.90;;;;;;5158061;27;20591;-83
2023/10/16 10:33:51;;;;;;;1404.83;561.03;;;12.80;99.90;;;;;;5156853;27;20123;-87
2023/10/16 10:36:43;;;;;;;1500.97;550.40;;;12.80;99.90;;;;;;5156790;27;20428;-82
2023/10/16 10:39:21;;;;;;;1410.47;560.37;;;12.90;99.90;;;;;;5138664;27;20069;-82
2023/10/16 10:41:54;;;;;;;1409.50;565.40;;;13.10;99.90;;;;;;5156796;27;20103;-83
2023/10/16 10:44:33;;;;;;;1503.43;557.07;;;13.00;99.90;;;;;;5138492;27;20039;-82
2023/10/16 10:47:04;;;;;;;1500.00;552.33;;;13.20;99.90;;;;;;5156923;27;20118;-84
2023/10/16 10:49:35;;;;;;;1509.03;560.10;;;13.30;99.90;;;;;;5155316;27;20042;-84
2023/10/16 10:52:04;;;;;;;1420.50;576.00;;;13.30;99.90;;;;;;5137919;27;20039;-84
2023/10/16 10:54:30;;;;;;;1509.73;553.57;;;13.30;99.90;;;;;;5138029;27;20115;-84
2023/10/16 10:56:59;;;;;;;1416.60;567.23;;;13.30;99.90;;;;;;5156029;27;20043;-85
2023/10/16 10:59:39;;;;;;;1420.77;579.33;;;13.30;99.90;;;;;;5138364;27;20056;-84
2023/10/16 11:04:58;;;;;;;1510.13;555.73;;;13.20;99.90;;;;;;5139199;27;20050;-84
2023/10/16 11:07:39;;;;;;;1418.77;572.80;;;13.10;99.90;;;;;;5155917;27;20151;-84
2023/10/16 11:10:06;;;;;;;1511.77;554.43;;;13.20;99.90;;;;;;5156507;27;20961;-83
2023/10/16 11:12:33;;;;;;;1514.90;555.63;;;13.20;99.90;;;;;;5156358;27;20078;-83
2023/10/16 11:15:01;;;;;;;1422.77;577.50;;;13.20;99.90;;;;;;5137712;27;20484;-83
2023/10/16 11:17:37;;;;;;;1514.73;557.20;;;13.30;99.90;;;;;;5137382;27;20050;-85
2023/10/16 11:22:46;;;;;;;1420.30;574.73;;;13.40;99.90;;;;;;5155490;27;20099;-85
2023/10/16 11:25:13;;;;;;;1511.43;560.57;;;13.40;99.90;;;;;;5156038;27;20070;-83
2023/10/16 11:27:43;;;;;;;1421.10;578.50;;;13.40;99.90;;;;;;5176608;27;20038;-84
2023/10/16 11:30:14;;;;;;;1514.50;565.60;;;13.30;99.90;;;;;;5157926;27;20090;-83
2023/10/16 11:32:45;;;;;;;1423.77;599.27;;;13.40;99.90;;;;;;5138578;27;20046;-83
2023/10/16 11:35:15;;;;;;;1513.20;560.63;;;13.40;99.90;;;;;;5155678;27;20031;-83
2023/10/16 11:37:52;;;;;;;1421.77;589.80;;;13.40;99.90;;;;;;5156223;27;20039;-83
2023/10/16 11:40:18;;;;;;;1418.73;582.47;;;13.50;99.90;;;;;;5176238;27;20490;-83
2023/10/16 11:42:48;;;;;;;1419.90;591.73;;;13.50;99.90;;;;;;5164444;27;20046;-84
2023/10/16 11:45:20;;;;;;;1519.97;567.83;;;13.60;99.90;;;;;;5118217;27;20047;-83
2023/10/16 11:50:40;;;;;;;1437.03;602.93;;;14.00;99.90;;;;;;5070743;28;20052;-84
2023/10/16 11:53:07;;;;;;;1526.10;573.23;;;13.80;99.90;;;;;;5054622;28;20427;-84
2023/10/16 11:55:39;;;;;;;1521.13;570.00;;;13.70;99.90;;;;;;5054831;28;20424;-83
2023/10/16 11:58:11;;;;;;;1429.03;594.97;;;13.80;99.90;;;;;;5054360;28;20512;-84
2023/10/16 12:00:43;;;;;;;1432.53;597.10;;;13.60;99.90;;;;;;5053770;28;20519;-83
2023/10/16 12:03:17;;;;;;;1524.60;573.87;;;13.50;99.90;;;;;;5070839;28;20094;-84
2023/10/16 12:05:43;;;;;;;1428.10;596.93;;;13.40;99.90;;;;;;5054016;28;20045;-84
2023/10/16 12:08:10;;;;;;;1520.90;577.53;;;13.40;99.90;;;;;;5053937;28;20053;-85
2023/10/16 12:10:36;;;;;;;1519.73;566.60;;;13.40;99.90;;;;;;5063523;28;20044;-83
2023/10/16 12:13:03;;;;;;;1430.80;599.53;;;13.40;99.90;;;;;;5054167;28;20098;-85
2023/10/16 12:15:32;;;;;;;1514.60;567.00;;;13.40;99.90;;;;;;5054272;28;20102;-85
2023/10/16 12:18:00;;;;;;;1521.70;571.63;;;13.50;99.90;;;;;;5070269;28;20048;-84
2023/10/16 12:20:27;;;;;;;1426.87;593.10;;;13.60;99.90;;;;;;5053765;28;20056;-85
2023/10/16 12:22:54;;;;;;;1426.03;596.37;;;13.60;99.90;;;;;;5037572;28;20047;-83
2023/10/16 12:25:23;;;;;;;1424.47;593.03;;;13.70;99.90;;;;;;5070135;28;20102;-88
2023/10/16 12:27:50;;;;;;;1513.03;571.77;;;13.70;99.90;;;;;;5089999;27;20065;-84
2023/10/16 12:30:17;;;;;;;1521.37;580.83;;;13.70;99.90;;;;;;5116022;27;20100;-86
2023/10/16 12:32:43;;;;;;;1424.73;601.43;;;13.70;99.90;;;;;;5115100;28;20039;-83
2023/10/16 12:35:11;;;;;;;1426.50;602.87;;;13.70;99.90;;;;;;5115731;27;20395;-84
2023/10/16 12:37:37;;;;;;;1424.93;601.83;;;13.70;99.90;;;;;;5150589;27;20031;-84
2023/10/16 12:40:24;;;;;;;1514.83;573.60;;;13.60;99.90;;;;;;5153183;27;20452;-84
2023/10/16 12:42:58;;;;;;;1514.60;574.43;;;13.60;99.90;;;;;;5118678;27;20045;-84
2023/10/16 12:45:25;;;;;;;1514.33;574.83;;;13.50;99.90;;;;;;5136046;27;20042;-84
2023/10/16 12:47:51;;;;;;;1420.87;603.30;;;13.50;99.90;;;;;;5118693;27;20050;-84
2023/10/16 12:50:18;;;;;;;1510.93;574.67;;;13.60;99.90;;;;;;5154335;27;20058;-83
2023/10/16 12:52:44;;;;;;;1419.63;595.37;;;13.50;99.90;;;;;;5154858;27;20095;-83
2023/10/16 12:55:11;;;;;;;1507.63;571.50;;;13.50;99.90;;;;;;5131770;28;20176;-84
2023/10/16 12:57:37;;;;;;;1505.03;566.30;;;13.50;99.90;;;;;;5133908;28;20043;-83
2023/10/16 13:00:13;;;;;;;1506.00;567.53;;;14.10;99.90;;;;;;5110830;27;20433;-83
2023/10/16 13:02:42;;;;;;;1416.13;589.10;;;13.50;99.90;;;;;;5135586;27;20050;-83
2023/10/16 13:05:13;;;;;;;1510.70;574.10;;;13.60;99.90;;;;;;5128081;27;20039;-83
2023/10/16 13:07:43;;;;;;;1503.77;565.30;;;14.10;99.90;;;;;;5117834;27;20054;-82
2023/10/16 13:10:14;;;;;;;1416.30;593.50;;;13.60;99.90;;;;;;5153973;27;20123;-83
2023/10/16 13:12:43;;;;;;;1509.47;574.97;;;13.40;99.90;;;;;;5137890;27;20558;-83
2023/10/16 13:15:16;;;;;;;1414.93;592.63;;;13.50;99.90;;;;;;5139164;27;20121;-85
2023/10/16 13:17:44;;;;;;;1501.27;567.70;;;13.80;99.90;;;;;;5140143;27;20043;-83
2023/10/16 13:20:20;;;;;;;1504.60;569.27;;;13.60;99.90;;;;;;5139635;27;20047;-84
2023/10/16 13:22:49;;;;;;;1501.90;564.08;;;13.60;99.90;;;;;;5139960;27;20053;-85
2023/10/16 13:25:35;;;;;;;1499.83;569.13;;;13.80;99.90;;;;;;5139411;27;20038;-83
2023/10/16 13:28:03;;;;;;;1414.07;592.40;;;13.60;99.90;;;;;;5158118;27;20051;-86
2023/10/16 13:30:31;;;;;;;1416.53;597.80;;;13.70;99.90;;;;;;5158304;27;20030;-83
2023/10/16 13:33:00;;;;;;;1417.67;599.87;;;13.70;99.90;;;;;;5140418;27;20042;-84
2023/10/16 13:35:26;;;;;;;1506.80;573.63;;;13.80;99.90;;;;;;5166594;27;20455;-83
2023/10/16 13:37:52;;;;;;;1501.40;562.83;;;13.70;99.90;;;;;;5139347;27;20042;-84
2023/10/16 13:40:22;;;;;;;1503.43;570.57;;;13.70;99.90;;;;;;5139303;27;20051;-86
2023/10/16 13:42:52;;;;;;;1415.03;595.60;;;13.70;99.90;;;;;;5136239;27;20395;-84
2023/10/16 13:45:18;;;;;;;1502.83;568.33;;;13.70;99.90;;;;;;5146361;27;20129;-84
2023/10/16 13:47:45;;;;;;;1417.07;596.50;;;13.70;99.90;;;;;;5157480;27;20188;-84
2023/10/16 13:50:16;;;;;;;1410.27;586.57;;;13.80;99.90;;;;;;5139189;27;20046;-83
2023/10/16 13:52:43;;;;;;;1413.20;592.77;;;14.20;99.90;;;;;;5157912;27;20117;-84
2023/10/16 13:55:13;;;;;;;1413.63;596.33;;;13.70;99.90;;;;;;5139694;27;20397;-84
2023/10/16 13:57:42;;;;;;;1507.13;573.90;;;13.60;99.90;;;;;;5157677;27;20092;-86
2023/10/16 14:00:31;;;;;;;1502.73;571.23;;;13.90;99.90;;;;;;5135448;27;20039;-84
2023/10/16 14:02:57;;;;;;;1408.63;587.17;;;13.70;99.90;;;;;;5151468;27;20440;-84
2023/10/16 14:05:23;;;;;;;1412.43;593.37;;;13.90;99.90;;;;;;5122158;27;20035;-84
2023/10/16 14:07:53;;;;;;;1498.30;567.43;;;13.70;99.90;;;;;;5157576;27;20058;-84
2023/10/16 14:10:21;;;;;;;1410.47;592.30;;;13.80;99.90;;;;;;5138734;27;20091;-84
2023/10/16 14:12:58;;;;;;;1499.60;571.77;;;13.60;99.90;;;;;;5122006;27;20163;-84
2023/10/16 14:15:26;;;;;;;1501.63;570.97;;;14.00;99.90;;;;;;5139349;27;20054;-84
2023/10/16 14:17:53;;;;;;;1409.93;586.60;;;13.60;99.90;;;;;;5170027;27;20553;-86
2023/10/16 14:20:34;;;;;;;1493.93;559.23;;;14.00;99.90;;;;;;5159677;27;20039;-83
2023/10/16 14:23:00;;;;;;;1410.63;588.70;;;13.50;99.90;;;;;;5136311;27;20425;-85
2023/10/16 14:25:32;;;;;;;1502.40;571.50;;;13.40;99.90;;;;;;5118835;27;20387;-84
2023/10/16 14:28:11;;;;;;;1501.30;575.33;;;13.50;99.90;;;;;;5136599;27;20050;-85
2023/10/16 14:30:39;;;;;;;1409.03;590.60;;;13.40;99.90;;;;;;5129816;27;20094;-86
2023/10/16 14:33:06;;;;;;;1408.93;588.17;;;13.90;99.90;;;;;;5159500;27;20056;-86
2023/10/16 14:35:37;;;;;;;1498.07;564.73;;;13.50;99.90;;;;;;5148077;27;20429;-85
2023/10/16 14:38:05;;;;;;;1411.93;588.33;;;13.50;99.90;;;;;;5118174;27;20051;-86
2023/10/16 14:40:35;;;;;;;1406.67;587.03;;;13.40;99.90;;;;;;5118101;27;20047;-85
2023/10/16 14:43:03;;;;;;;1403.07;583.70;;;13.30;99.90;;;;;;5136535;27;20078;-83